Terminal Aerodrome Forecast
Issued by NWS Albany, NY

Home | Current Version | Previous Version | Text Only | Print | Product List | Glossary On
Versions: 1 2 3 4 5 6 7 8 9 10 11 12 13 14 15 16 17 18 19
000
FTUS41 KALY 270317 AAB
TAFGFL
TAF AMD
KGFL 270317Z 2703/2724 00000KT P6SM VCSH SCT050 BKN080
      TEMPO 2703/2705 -SHRA
     FM270500 00000KT P6SM MIFG SCT035 SCT050
     FM271300 21005KT P6SM SCT045
     FM271600 22008KT P6SM VCSH BKN050=

USA.gov is the U.S. government's official web portal to all federal, state and local government web resources and services.